Plattsmouth, NE

1:45 PM CDT on October 23, 2019 (GMT -0500)
Plattsmouth Municipal

Weather History for KPMV - September, 2019

Change the Weather History Date:

Tuesday, September 17, 2019

  Actual Average (WUND) Record (WUND)
Temperature  
Mean Temperature 81 °F -  
Max Temperature 90 °F - - (-1)
Min Temperature 72 °F - - (-1)
Cooling Degree Days 16    
Growing Degree Days 31 (Base 50)    
Moisture  
Dew Point 71 °F    
Average Humidity 74    
Maximum Humidity 96    
Minimum Humidity 47    
Precipitation  
Precipitation 0.00 in - - ()
Sea Level Pressure  
Sea Level Pressure 29.96 in    
Wind  
Wind Speed 11 mph (SSE)    
Max Wind Speed 17 mph    
Max Gust Speed 26 mph    
Visibility 10 miles    
Events      
Averages and records for this station are not official NWS values.
T = Trace of Precipitation, MM = Missing Value Source: NWS Daily Summary

Daily Weather History Graph

Daily Weather History Graph

Search for Another Location

Airport or City:

Astronomy

Sep. 17, 2019 Rise Set
Actual Time 7:06 AM CDT 7:29 PM CDT
Civil Twilight 6:38 AM CDT 7:57 PM CDT
Nautical Twilight 6:06 AM CDT 8:29 PM CDT
Astronomical Twilight 5:32 AM CDT 9:02 PM CDT
Moon 9:31 PM CDT (9/17) 10:12 AM CDT (9/17)
Length of Visible Light 13h 18m
Length of Day
12h 23m
Waning Gibbous, 89% of the Moon is Illuminated
Sep 17
Waning Gibbous
Sep 21
Last Quarter
Sep 28
New
Oct 5
First Quarter
Oct 13
Full

Hourly Weather History & Observations

Time (CDT) Temp. Heat Index Dew Point Humidity Pressure Visibility Wind Dir Wind Speed Gust Speed Precip Events Conditions
12:15 AM 77.2 °F - 72.5 °F 85% 29.99 in 10.0 mi SSE 10.4 mph - N/A   Clear
12:35 AM 77.2 °F - 72.3 °F 85% 29.99 in 10.0 mi SSE 9.2 mph - N/A   Clear
12:55 AM 76.5 °F - 72.1 °F 86% 29.99 in 10.0 mi SSE 9.2 mph - N/A   Clear
1:15 AM 76.1 °F - 72.1 °F 87% 29.99 in 10.0 mi SSE 9.2 mph - N/A   Clear
1:35 AM 76.1 °F - 72.0 °F 87% 29.99 in 10.0 mi SSE 9.2 mph - N/A   Clear
1:55 AM 75.9 °F - 71.6 °F 86% 29.99 in 10.0 mi SSE 9.2 mph - N/A   Clear
2:15 AM 75.6 °F - 71.6 °F 87% 29.99 in 10.0 mi SSE 8.1 mph - N/A   Clear
2:35 AM 75.6 °F - 71.6 °F 87% 29.99 in 10.0 mi SSE 9.2 mph - N/A   Clear
2:55 AM 75.2 °F - 71.6 °F 89% 29.98 in 10.0 mi SSE 8.1 mph - N/A   Clear
3:15 AM 74.3 °F - 71.6 °F 91% 29.98 in 10.0 mi SSE 8.1 mph - N/A   Clear
3:35 AM 74.3 °F - 71.6 °F 91% 29.98 in 10.0 mi South 10.4 mph - N/A   Clear
3:55 AM 74.3 °F - 71.6 °F 91% 29.98 in 10.0 mi South 10.4 mph - N/A   Clear
4:15 AM 73.9 °F - 71.6 °F 92% 29.98 in 10.0 mi South 10.4 mph - N/A   Clear
4:35 AM 74.3 °F - 71.6 °F 91% 29.98 in 10.0 mi SSE 10.4 mph 16.1 mph N/A   Clear
4:55 AM 73.9 °F - 71.2 °F 91% 29.98 in 10.0 mi SSE 9.2 mph - N/A   Clear
5:15 AM 73.8 °F - 71.1 °F 91% 29.98 in 10.0 mi SSE 10.4 mph - N/A   Clear
5:35 AM 73.4 °F - 71.1 °F 92% 29.98 in 10.0 mi SSE 9.2 mph - N/A   Clear
5:55 AM 73.4 °F - 71.1 °F 92% 29.98 in 10.0 mi SSE 11.5 mph 17.3 mph N/A   Clear
6:15 AM 72.7 °F - 71.1 °F 95% 29.99 in 10.0 mi SSE 9.2 mph - N/A   Clear
6:35 AM 72.5 °F - 71.1 °F 95% 29.99 in 10.0 mi SSE 10.4 mph - N/A   Clear
6:55 AM 72.3 °F - 71.1 °F 96% 30.00 in 10.0 mi SSE 10.4 mph - N/A   Clear
7:15 AM 72.5 °F - 70.9 °F 95% 30.00 in 10.0 mi SSE 8.1 mph - N/A   Clear
7:35 AM 72.5 °F - 71.1 °F 95% 30.01 in 7.0 mi SSE 9.2 mph - N/A   Clear
7:55 AM 72.5 °F - 71.2 °F 96% 30.01 in 7.0 mi SSE 8.1 mph - N/A   Clear
8:15 AM 73.4 °F - 71.6 °F 94% 30.01 in 10.0 mi SSE 8.1 mph - N/A   Clear
8:35 AM 74.3 °F - 71.6 °F 91% 30.01 in 10.0 mi SSE 8.1 mph - N/A   Clear
8:55 AM 75.4 °F - 71.6 °F 88% 30.01 in 10.0 mi SSE 9.2 mph - N/A   Clear
9:15 AM 76.6 °F - 71.6 °F 84% 30.01 in 10.0 mi SSE 9.2 mph - N/A   Clear
9:35 AM 76.6 °F - 71.2 °F 83% 30.01 in 10.0 mi SSE 10.4 mph - N/A   Clear
9:55 AM 77.4 °F - 71.4 °F 82% 30.01 in 10.0 mi SSE 8.1 mph - N/A   Clear
10:15 AM 80.1 °F 84.0 °F 72.3 °F 77% 30.01 in 10.0 mi SSE 9.2 mph - N/A   Clear
10:35 AM 79.9 °F - 70.7 °F 73% 30.01 in 10.0 mi SSE 13.8 mph - N/A   Clear
10:55 AM 79.7 °F - 71.4 °F 76% 30.00 in 10.0 mi SSE 9.2 mph - N/A   Clear
11:15 AM 82.0 °F 87.2 °F 72.7 °F 73% 30.00 in 10.0 mi SSE 10.4 mph - N/A   Clear
11:35 AM 84.4 °F 89.7 °F 71.2 °F 65% 30.00 in 10.0 mi SSE 12.7 mph 17.3 mph N/A   Clear
11:55 AM 85.3 °F 90.4 °F 70.9 °F 62% 29.99 in 10.0 mi South 16.1 mph 19.6 mph N/A   Clear
12:15 PM 86.0 °F 91.8 °F 71.4 °F 62% 29.98 in 10.0 mi SSE 11.5 mph 17.3 mph N/A   Clear
12:35 PM 86.7 °F 92.9 °F 71.6 °F 61% 29.98 in 10.0 mi SSE 12.7 mph 20.7 mph N/A   Clear
12:55 PM 87.8 °F 93.0 °F 70.5 °F 56% 29.98 in 10.0 mi South 13.8 mph 19.6 mph N/A   Clear
1:15 PM 88.0 °F 92.9 °F 70.0 °F 55% 29.97 in 10.0 mi South 15.0 mph 21.9 mph N/A   Clear
1:35 PM 88.5 °F 94.0 °F 70.3 °F 55% 29.96 in 10.0 mi SSE 12.7 mph 24.2 mph N/A   Clear
1:55 PM 89.4 °F 94.0 °F 69.3 °F 51% 29.96 in 10.0 mi South 16.1 mph 21.9 mph N/A   Scattered Clouds
2:15 PM 89.4 °F 94.0 °F 68.9 °F 51% 29.95 in 10.0 mi SSE 13.8 mph 23.0 mph N/A   Clear
2:35 PM 89.2 °F 93.6 °F 68.9 °F 51% 29.94 in 10.0 mi SSE 15.0 mph 18.4 mph N/A   Scattered Clouds
2:55 PM 89.6 °F 94.3 °F 69.4 °F 51% 29.93 in 10.0 mi SSE 12.7 mph 24.2 mph N/A   Clear
3:15 PM 90.0 °F 94.5 °F 68.9 °F 50% 29.93 in 10.0 mi SSE 17.3 mph 23.0 mph N/A   Clear
3:35 PM 90.3 °F 93.9 °F 67.8 °F 47% 29.92 in 10.0 mi SSE 17.3 mph 26.5 mph N/A   Clear
3:55 PM 90.0 °F 94.1 °F 68.7 °F 49% 29.92 in 10.0 mi SSE 16.1 mph 24.2 mph N/A   Clear
4:15 PM 90.1 °F 94.4 °F 68.4 °F 49% 29.91 in 10.0 mi SSE 17.3 mph - N/A   Scattered Clouds
4:35 PM 89.6 °F 93.9 °F 68.5 °F 50% 29.91 in 10.0 mi SSE 17.3 mph 24.2 mph N/A   Scattered Clouds
4:55 PM 88.9 °F 93.8 °F 69.6 °F 53% 29.91 in 10.0 mi SSE 13.8 mph 19.6 mph N/A   Clear
5:15 PM 89.1 °F 93.3 °F 68.7 °F 51% 29.90 in 10.0 mi SSE 13.8 mph 20.7 mph N/A   Scattered Clouds
5:35 PM 88.3 °F 92.0 °F 68.2 °F 51% 29.90 in 10.0 mi South 16.1 mph 21.9 mph N/A   Clear
5:55 PM 86.9 °F 89.9 °F 67.3 °F 52% 29.89 in 10.0 mi SSE 13.8 mph 21.9 mph N/A   Clear
6:15 PM 86.7 °F 90.3 °F 68.2 °F 54% 29.89 in 10.0 mi SSE 10.4 mph 17.3 mph N/A   Clear
6:35 PM 85.6 °F 88.8 °F 67.6 °F 55% 29.89 in 10.0 mi SSE 9.2 mph 20.7 mph N/A   Clear
6:55 PM 84.4 °F 86.8 °F 66.6 °F 55% 29.89 in 10.0 mi SSE 12.7 mph 19.6 mph N/A   Clear
7:35 PM 82.4 °F 85.2 °F 67.6 °F 61% 29.89 in 10.0 mi SSE 11.5 mph - N/A   Clear
7:55 PM 81.7 °F 84.7 °F 68.5 °F 64% 29.89 in 10.0 mi SSE 10.4 mph - N/A   Clear
8:15 PM 81.3 °F 84.6 °F 69.3 °F 67% 29.90 in 10.0 mi SSE 10.4 mph 17.3 mph N/A   Clear
8:35 PM 80.6 °F 83.9 °F 69.8 °F 70% 29.90 in 10.0 mi SSE 11.5 mph 18.4 mph N/A   Clear
8:55 PM 80.1 °F 83.3 °F 70.2 °F 72% 29.91 in 10.0 mi SSE 15.0 mph - N/A   Clear
9:15 PM 80.2 °F 83.7 °F 70.7 °F 73% 29.91 in 10.0 mi SSE 13.8 mph 19.6 mph N/A   Clear
9:35 PM 80.1 °F 83.6 °F 71.1 °F 74% 29.91 in 10.0 mi SSE 13.8 mph 19.6 mph N/A   Clear
9:55 PM 79.7 °F - 71.2 °F 75% 29.91 in 10.0 mi SSE 12.7 mph - N/A   Clear
10:15 PM 79.0 °F - 71.4 °F 78% 29.92 in 10.0 mi SSE 12.7 mph - N/A   Clear
10:35 PM 78.3 °F - 71.6 °F 80% 29.92 in 10.0 mi SSE 9.2 mph - N/A   Clear
10:55 PM 78.3 °F - 71.6 °F 80% 29.91 in 10.0 mi SSE 9.2 mph - N/A   Clear
11:15 PM 77.7 °F - 71.8 °F 82% 29.91 in 10.0 mi SSE 9.2 mph - N/A   Clear
11:35 PM 77.5 °F - 71.8 °F 82% 29.91 in 10.0 mi SSE 11.5 mph - N/A   Clear
11:55 PM 77.4 °F - 71.6 °F 82% 29.91 in 10.0 mi SSE 11.5 mph - N/A   Clear